Monday, March 30, 2015
07:08 UTC
  |  Log In   |  Register Free
Airport Search:

Livermore Municipal Airport
(KLVK)

FAA data valid effective March 05, 2015 - April 30, 2015 (unless otherwise noted).

 
 
 
 
 
 
 
 
 
 
 
 
 
 

Current Aviation Weather for Livermore Municipal Airport (KLVK)

The most recent METAR observation for KLVK was updated at: 1411
METAR Summary (Translated METAR)
KLVK
251353Z AUTO 00000KT 10SM CLR 08/06 A3022 RMK AO2 SLP231 T00780061
KHWD
251354Z 06005KT 10SM CLR 12/09 A3021 RMK AO2 SLP240 T01170089
(14.5 nm SW from KLVK)
KOAK
251353Z 00000KT 10SM FEW250 09/08 A3022 RMK AO2 SLP231 T00940078
(19.1 nm NW from KLVK)
TAF Summary (Translated TAF)
KLVK
251122Z 2512/2612 VRB03KT P6SM SKC FM251800 26005KT P6SM SKC FM252200 29010KT P6SM SKC FM260400 VRB03KT P6SM SKC
KOAK
(19.1 nm NW from KLVK)
251122Z 2512/2618 00000KT P6SM SKC TEMPO 2512/2516 4SM BR BKN007 FM251900 27006KT P6SM SKC FM252200 29013KT P6SM SKC FM260400 29005KT P6SM SKC
  Airport Weather Conditions for KLVK

 Current Weather at LVK
59° F
Fair
North winds at 0.0 mph
LVK NOAA Radar

Pressure: 30.04 in
Humidity: 60%
Wind: Calm
Dew Point: 45.0°F
Visibility: 10.00 mi


Airport Weather Forecast for KLVK

Translated METAR and TAF for KLVK
Translated METAR for KLVK (0707 UTC 30 March 2015)
found at http://aviationweather.gov/adds/metars/
 
METAR text: KLVK 300653Z AUTO 00000KT 10SM CLR 14/07 A3004 RMK AO2 SLP169 T01390067
Conditions at: KLVK (LIVERMORE , CA, US) observed 0653 UTC 30 March 2015
Temperature: 13.9°C (57°F)
Dewpoint: 6.7°C (44°F) [RH = 62%]
Pressure (altimeter): 30.04 inches Hg (1017.4 mb)
[Sea-level pressure: 1016.9 mb]
Winds: calm
Visibility: 10 or more miles (16+ km)
Ceiling: at least 12,000 feet AGL
Clouds: sky clear below 12,000 feet AGL
Weather: automated observation with no human augmentation;
there may or may not be significant weather present at this time
Translated TAF for KLVK
Forecast for: KLVK (LIVERMORE , CA, US)
TAF Text: KLVK 300520Z 3006/3106 VRB03KT P6SM SKC
Forecast period: 0600 to 0900 UTC 30 March 2015
Forecast type: FROM: standard forecast or significant change
Winds: variable direction winds at 3 MPH (3 knots; 1.6 m/s)
Visibility: 6 or more miles (10+ km)
Clouds: clear skies
Weather: no significant weather forecast for this period
TAF Text: FM300900 00000KT P6SM SKC
Forecast period: 0900 to 1800 UTC 30 March 2015
Forecast type: FROM: standard forecast or significant change
Winds: calm
Visibility: 6 or more miles (10+ km)
Clouds: clear skies
Weather: no significant weather forecast for this period
TAF Text: FM301800 VRB03KT P6SM SKC
Forecast period: 1800 to 2100 UTC 30 March 2015
Forecast type: FROM: standard forecast or significant change
Winds: variable direction winds at 3 MPH (3 knots; 1.6 m/s)
Visibility: 6 or more miles (10+ km)
Clouds: clear skies
Weather: no significant weather forecast for this period
TAF Text: FM302100 27015KT P6SM SKC
Forecast period: 2100 UTC 30 March 2015 to 0600 UTC 31 March 2015
Forecast type: FROM: standard forecast or significant change
Winds: from the W (270 degrees) at 17 MPH (15 knots; 7.8 m/s)
Visibility: 6 or more miles (10+ km)
Clouds: clear skies
Weather: no significant weather forecast for this period

Find All Airport Services Find A Hotel Find A Rental Car Find A Golf Course Find A Restaurant $100 Hamburger



FBO's on the Field
FBO Company Facility Photos Services Transportation Aviation Fuel Prices: Prices include tax
Catering Weather Repair Courtesy Rental Type 100LL JetA JetA+ MOGAS 8087
 
Livermore Municipal Airport

This FBO has not yet been rated
FS:Ascent
Last Updated: Mar-25
Login to update fuel prices
SS:
Contact Livermore Municipal AirportMore FBO Information
 
Add another FBO Facility Photos Catering Weather Repair Courtesy Rental Type 100LL JetA JetA+ MOGAS 8087
Services Transportation Aviation Fuel Prices: Prices include tax


model-print
model-print
model-print
model-print